createdAt,value
2023-05-23T00:01:25.457Z,99919.13
2023-05-23T00:04:17.251Z,99923.56
2023-05-23T00:07:06.486Z,99913.25
2023-05-23T00:09:55.107Z,99909.16
2023-05-23T00:12:48.185Z,99907.16
2023-05-23T00:15:37.267Z,99913.31
2023-05-23T00:18:25.884Z,99913.31
2023-05-23T00:21:14.686Z,99905.28
2023-05-23T00:24:04.644Z,99910.44
2023-05-23T00:26:53.276Z,99911.69
2023-05-23T00:29:43.312Z,99923.44
2023-05-23T00:32:32.103Z,99926.91
2023-05-23T00:35:20.999Z,99949.16
2023-05-23T00:38:11.590Z,99963.59
2023-05-23T00:41:00.311Z,99968.06
2023-05-23T00:43:48.941Z,99964.78
2023-05-23T00:46:39.150Z,99959.88
2023-05-23T00:49:29.194Z,99959.50
2023-05-23T00:52:19.118Z,99945.88
2023-05-23T00:55:09.544Z,99937.84
2023-05-23T00:57:58.735Z,99943.22
2023-05-23T01:00:48.571Z,99931.09
2023-05-23T01:03:38.755Z,99933.53
2023-05-23T01:06:30.609Z,99934.41
2023-05-23T01:09:20.893Z,99905.41
2023-05-23T01:12:20.328Z,99902.75
2023-05-23T01:15:12.474Z,99908.09
2023-05-23T01:18:04.485Z,99911.81
2023-05-23T01:20:57.453Z,99913.00
2023-05-23T01:24:09.888Z,99923.13
2023-05-23T01:27:09.658Z,99920.88
2023-05-23T01:30:02.161Z,99931.16
2023-05-23T01:32:54.711Z,99934.66
2023-05-23T01:35:48.347Z,99927.28
2023-05-23T01:38:37.085Z,99935.31
2023-05-23T01:41:26.013Z,99946.00
2023-05-23T01:44:14.786Z,99956.72
2023-05-23T01:47:05.911Z,99956.72
2023-05-23T01:49:55.514Z,99942.91
2023-05-23T01:52:50.517Z,99942.31
2023-05-23T01:55:41.072Z,99947.06
2023-05-23T01:58:29.922Z,99953.47
2023-05-23T02:01:19.474Z,99943.94
2023-05-23T02:04:09.595Z,99937.81
2023-05-23T02:06:58.320Z,99939.44
2023-05-23T02:09:46.908Z,99924.59
2023-05-23T02:12:35.498Z,99925.06
2023-05-23T02:15:24.253Z,99925.06
2023-05-23T02:18:13.118Z,99921.94
2023-05-23T02:21:03.259Z,99912.53
2023-05-23T02:23:52.005Z,99909.00
2023-05-23T02:26:41.793Z,99904.50
2023-05-23T02:29:30.422Z,99900.19
2023-05-23T02:32:19.063Z,99899.59
2023-05-23T02:35:10.209Z,99884.78
2023-05-23T02:38:00.272Z,99874.53
2023-05-23T02:40:50.486Z,99875.94
2023-05-23T02:43:39.641Z,99874.09
2023-05-23T02:46:31.020Z,99862.19
2023-05-23T02:49:19.803Z,99877.59
2023-05-23T02:52:08.668Z,99875.94
2023-05-23T02:54:58.739Z,99869.56
2023-05-23T02:57:47.359Z,99860.91
2023-05-23T03:00:36.151Z,99850.22
2023-05-23T03:03:25.031Z,99846.28
2023-05-23T03:06:14.738Z,99842.44
2023-05-23T03:09:03.670Z,99830.88
2023-05-23T03:11:53.846Z,99836.25
2023-05-23T03:14:44.238Z,99833.56
2023-05-23T03:17:33.034Z,99833.44
2023-05-23T03:20:21.831Z,99849.03
2023-05-23T03:23:10.597Z,99839.38
2023-05-23T03:25:59.865Z,99838.47
2023-05-23T03:28:51.149Z,99825.53
2023-05-23T03:31:39.805Z,99831.72
2023-05-23T03:34:28.674Z,99828.81
2023-05-23T03:37:17.296Z,99830.44
2023-05-23T03:40:07.364Z,99821.03
2023-05-23T03:43:04.784Z,99820.63
2023-05-23T03:45:54.908Z,99837.06
2023-05-23T03:48:43.662Z,99825.91
2023-05-23T03:51:33.700Z,99833.56
2023-05-23T03:54:25.365Z,99841.16
2023-05-23T03:57:14.079Z,99846.94
2023-05-23T04:00:06.407Z,99848.59
2023-05-23T04:02:57.384Z,99853.13
2023-05-23T04:05:46.280Z,99856.78
2023-05-23T04:08:35.468Z,99856.78
2023-05-23T04:11:24.298Z,99866.19
2023-05-23T04:14:13.622Z,99860.13
2023-05-23T04:17:02.608Z,99873.25
2023-05-23T04:19:52.919Z,99869.56
2023-05-23T04:22:41.532Z,99864.22
2023-05-23T04:25:31.683Z,99877.59
2023-05-23T04:28:20.354Z,99878.19
2023-05-23T04:31:09.164Z,99883.97
2023-05-23T04:33:57.896Z,99889.28
2023-05-23T04:36:48.234Z,99889.69
2023-05-23T04:39:36.882Z,99878.59
2023-05-23T04:42:26.013Z,99890.97
2023-05-23T04:45:14.735Z,99884.13
2023-05-23T04:48:03.464Z,99885.19
2023-05-23T04:50:52.795Z,99886.44
2023-05-23T04:53:43.826Z,99886.22
2023-05-23T04:56:32.641Z,99882.50
2023-05-23T04:59:21.282Z,99890.28
2023-05-23T05:02:10.381Z,99884.72
2023-05-23T05:05:00.150Z,99889.50
2023-05-23T05:07:48.771Z,99887.41
2023-05-23T05:10:39.995Z,99889.28
2023-05-23T05:13:28.795Z,99892.97
2023-05-23T05:16:17.516Z,99898.56
2023-05-23T05:19:06.298Z,99900.41
2023-05-23T05:21:55.153Z,99906.13
2023-05-23T05:24:43.804Z,99895.75
2023-05-23T05:27:34.010Z,99902.22
2023-05-23T05:30:22.905Z,99908.16
2023-05-23T05:33:11.604Z,99903.25
2023-05-23T05:36:02.186Z,99909.41
2023-05-23T05:38:51.270Z,99900.97
2023-05-23T05:41:39.970Z,99898.72
2023-05-23T05:44:29.998Z,99899.53
2023-05-23T05:47:18.675Z,99896.63
2023-05-23T05:50:08.493Z,99899.31
2023-05-23T05:52:57.187Z,99902.41
2023-05-23T05:55:45.903Z,99901.19
2023-05-23T05:58:34.525Z,99914.94
2023-05-23T06:01:25.443Z,99909.78
2023-05-23T06:04:14.636Z,99918.41
2023-05-23T06:07:03.468Z,99918.81
2023-05-23T06:09:52.195Z,99923.31
2023-05-23T06:12:41.155Z,99924.59
2023-05-23T06:15:29.823Z,99919.25
2023-05-23T06:18:19.940Z,99917.56
2023-05-23T06:21:08.915Z,99929.97
2023-05-23T06:23:57.616Z,99929.78
2023-05-23T06:26:46.259Z,99922.97
2023-05-23T06:29:35.832Z,99919.69
2023-05-23T06:32:24.560Z,99928.38
2023-05-23T06:35:14.662Z,99927.34
2023-05-23T06:38:03.439Z,99931.06
2023-05-23T06:40:52.171Z,99926.50
2023-05-23T06:43:41.015Z,99935.75
2023-05-23T06:46:29.778Z,99935.13
2023-05-23T06:49:18.483Z,99933.22
2023-05-23T06:52:08.768Z,99932.09
2023-05-23T06:54:57.346Z,99935.31
2023-05-23T06:57:46.239Z,99942.75
2023-05-23T07:00:34.916Z,99934.47
2023-05-23T07:03:23.576Z,99942.31
2023-05-23T07:06:12.590Z,99939.38
2023-05-23T07:09:03.982Z,99938.53
2023-05-23T07:11:52.715Z,99943.50
2023-05-23T07:14:41.785Z,99935.91
2023-05-23T07:17:30.994Z,99940.94
2023-05-23T07:20:19.637Z,99948.97
2023-05-23T07:23:08.665Z,99951.19
2023-05-23T07:26:02.441Z,99950.59
2023-05-23T07:28:54.791Z,99954.50
2023-05-23T07:31:46.095Z,99949.75
2023-05-23T07:34:35.104Z,99956.72
2023-05-23T07:37:23.835Z,99957.97
2023-05-23T07:40:13.165Z,99958.41
2023-05-23T07:43:03.330Z,99944.59
2023-05-23T07:45:52.082Z,99953.88
2023-05-23T07:48:40.845Z,99947.66
2023-05-23T07:51:29.605Z,99946.00
2023-05-23T07:54:18.299Z,99955.81
2023-05-23T07:57:08.963Z,99950.34
2023-05-23T07:59:59.087Z,99948.84
2023-05-23T08:02:48.852Z,99945.38
2023-05-23T08:05:37.614Z,99949.31
2023-05-23T08:08:26.444Z,99946.25
2023-05-23T08:11:15.739Z,99949.50
2023-05-23T08:14:04.498Z,99950.34
2023-05-23T08:16:54.794Z,99964.03
2023-05-23T08:19:43.969Z,99953.91
2023-05-23T08:22:32.681Z,99957.41
2023-05-23T08:25:21.330Z,99958.59
2023-05-23T08:28:10.122Z,99969.09
2023-05-23T08:31:00.870Z,99961.50
2023-05-23T08:33:51.044Z,99969.94
2023-05-23T08:36:39.997Z,99968.75
2023-05-23T08:39:28.921Z,99975.28
2023-05-23T08:42:17.844Z,99987.31
2023-05-23T08:45:07.494Z,99970.94
2023-05-23T08:47:57.739Z,99970.59
2023-05-23T08:50:53.245Z,99983.53
2023-05-23T08:53:47.096Z,99976.72
2023-05-23T08:56:35.875Z,99989.91
2023-05-23T08:59:26.482Z,99975.50
2023-05-23T09:02:16.459Z,99977.97
2023-05-23T09:05:05.533Z,99985.78
2023-05-23T09:07:56.846Z,99991.91
2023-05-23T09:10:45.628Z,99994.38
2023-05-23T09:13:35.705Z,99993.41
2023-05-23T09:16:24.526Z,100005.53
2023-05-23T09:19:14.236Z,100012.38
2023-05-23T09:22:04.862Z,100008.22
2023-05-23T09:24:55.831Z,100006.88
2023-05-23T09:27:47.805Z,100001.47
2023-05-23T09:30:37.102Z,100013.41
2023-05-23T09:33:30.447Z,100015.50
2023-05-23T09:36:19.537Z,100019.97
2023-05-23T09:39:08.308Z,100018.31
2023-05-23T09:42:00.814Z,100028.63
2023-05-23T09:44:49.658Z,100032.16
2023-05-23T09:47:38.308Z,100027.63
2023-05-23T09:50:33.373Z,100030.25
2023-05-23T09:53:22.776Z,100031.06
2023-05-23T09:56:13.006Z,100043.25
2023-05-23T09:59:07.558Z,100041.34
2023-05-23T10:01:59.121Z,100043.03
2023-05-23T10:04:50.189Z,100042.19
2023-05-23T10:07:39.825Z,100045.09
2023-05-23T10:10:32.980Z,100053.69
2023-05-23T10:13:22.914Z,100052.94
2023-05-23T10:16:22.631Z,100055.81
2023-05-23T10:19:28.912Z,100047.78
2023-05-23T10:22:18.561Z,100052.09
2023-05-23T10:25:08.598Z,100047.78
2023-05-23T10:28:01.626Z,100057.44
2023-05-23T10:30:52.955Z,100052.09
2023-05-23T10:33:50.084Z,100055.78
2023-05-23T10:36:48.678Z,100072.69
2023-05-23T10:39:48.160Z,100062.81
2023-05-23T10:42:47.283Z,100062.81
2023-05-23T10:45:43.556Z,100068.78
2023-05-23T10:48:37.372Z,100068.09
2023-05-23T10:51:27.463Z,100067.22
2023-05-23T10:54:16.237Z,100076.31
2023-05-23T10:57:05.919Z,100072.56
2023-05-23T10:59:54.727Z,100080.81
2023-05-23T11:02:55.481Z,100080.06
2023-05-23T11:05:54.227Z,100078.78
2023-05-23T11:08:48.959Z,100080.66
2023-05-23T11:11:59.104Z,100082.09
2023-05-23T11:14:56.102Z,100082.56
2023-05-23T11:17:53.023Z,100081.34
2023-05-23T11:20:42.878Z,100086.31
2023-05-23T11:23:42.121Z,100085.06
2023-05-23T11:26:33.178Z,100089.94
2023-05-23T11:29:21.942Z,100089.16
2023-05-23T11:32:17.420Z,100091.59
2023-05-23T11:35:08.396Z,100088.38
2023-05-23T11:37:58.957Z,100086.50
2023-05-23T11:40:50.499Z,100088.16
2023-05-23T11:43:51.714Z,100086.50
2023-05-23T11:46:41.296Z,100089.38
2023-05-23T11:49:31.244Z,100082.19
2023-05-23T11:52:19.883Z,100084.66
2023-05-23T11:55:09.768Z,100090.06
2023-05-23T11:57:59.024Z,100085.56
2023-05-23T12:00:49.147Z,100090.06
2023-05-23T12:03:47.727Z,100084.31
2023-05-23T12:06:38.511Z,100086.78
2023-05-23T12:09:27.262Z,100080.84
2023-05-23T12:12:16.729Z,100076.94
2023-05-23T12:15:06.330Z,100079.16
2023-05-23T12:17:57.432Z,100076.53
2023-05-23T12:20:46.141Z,100081.25
2023-05-23T12:23:35.492Z,100076.03
2023-05-23T12:26:24.144Z,100080.59
2023-05-23T12:29:12.757Z,100080.84
2023-05-23T12:32:02.210Z,100082.28
2023-05-23T12:34:52.656Z,100090.72
2023-05-23T12:37:42.986Z,100092.78
2023-05-23T12:40:31.883Z,100100.00
2023-05-23T12:43:20.789Z,100092.34
2023-05-23T12:46:09.799Z,100090.16
2023-05-23T12:48:58.457Z,100099.63
2023-05-23T12:51:48.546Z,100103.72
2023-05-23T12:54:37.349Z,100095.69
2023-05-23T12:57:26.027Z,100104.09
2023-05-23T13:00:16.023Z,100119.31
2023-05-23T13:03:06.534Z,100119.72
2023-05-23T13:05:55.857Z,100119.72
2023-05-23T13:08:45.932Z,100117.53
2023-05-23T13:11:34.680Z,100110.47
2023-05-23T13:14:23.436Z,100117.53
2023-05-23T13:17:12.502Z,100123.50
2023-05-23T13:20:01.254Z,100125.38
2023-05-23T13:22:49.990Z,100122.56
2023-05-23T13:25:40.399Z,100124.59
2023-05-23T13:28:29.274Z,100126.91
2023-05-23T13:31:18.639Z,100129.59
2023-05-23T13:34:07.524Z,100127.56
2023-05-23T13:36:56.276Z,100125.06
2023-05-23T13:39:45.180Z,100124.69
2023-05-23T13:42:36.884Z,100129.84
2023-05-23T13:45:25.554Z,100133.13
2023-05-23T13:48:14.285Z,100135.81
2023-05-23T13:51:03.393Z,100135.38
2023-05-23T13:53:54.668Z,100149.53
2023-05-23T13:56:43.973Z,100146.47
2023-05-23T13:59:34.268Z,100147.28
2023-05-23T14:02:23.084Z,100148.28
2023-05-23T14:05:11.844Z,100150.34
2023-05-23T14:08:00.539Z,100153.41
2023-05-23T14:10:49.172Z,100144.75
2023-05-23T14:13:37.879Z,100152.59
2023-05-23T14:16:28.087Z,100147.22
2023-05-23T14:19:20.155Z,100152.97
2023-05-23T14:22:09.272Z,100152.53
2023-05-23T14:24:59.770Z,100149.84
2023-05-23T14:27:48.779Z,100155.84
2023-05-23T14:30:37.542Z,100155.22
2023-05-23T14:33:27.757Z,100160.13
2023-05-23T14:36:16.470Z,100164.69
2023-05-23T14:39:05.869Z,100161.34
2023-05-23T14:41:55.472Z,100172.28
2023-05-23T14:44:44.053Z,100176.78
2023-05-23T14:47:33.244Z,100174.72
2023-05-23T14:50:23.282Z,100176.38
2023-05-23T14:53:12.012Z,100182.09
2023-05-23T14:56:01.006Z,100179.19
2023-05-23T14:58:49.764Z,100175.06
2023-05-23T15:01:40.371Z,100183.34
2023-05-23T15:04:29.586Z,100181.72
2023-05-23T15:07:19.779Z,100183.34
2023-05-23T15:10:09.872Z,100186.41
2023-05-23T15:12:58.678Z,100186.19
2023-05-23T15:15:49.064Z,100190.34
2023-05-23T15:18:41.735Z,100191.53
2023-05-23T15:21:32.077Z,100195.25
2023-05-23T15:24:22.115Z,100187.41
2023-05-23T15:27:20.319Z,100189.47
2023-05-23T15:30:10.823Z,100187.41
2023-05-23T15:33:01.517Z,100189.88
2023-05-23T15:35:51.249Z,100189.25
2023-05-23T15:38:39.909Z,100187.00
2023-05-23T15:41:30.023Z,100196.06
2023-05-23T15:44:20.959Z,100198.53
2023-05-23T15:47:10.055Z,100195.47
2023-05-23T15:49:58.881Z,100203.91
2023-05-23T15:52:47.576Z,100192.59
2023-05-23T15:55:36.978Z,100205.16
2023-05-23T15:58:28.154Z,100210.09
2023-05-23T16:01:16.867Z,100208.44
2023-05-23T16:04:05.699Z,100217.91
2023-05-23T16:06:54.632Z,100217.13
2023-05-23T16:09:43.354Z,100228.19
2023-05-23T16:12:32.133Z,100229.88
2023-05-23T16:15:22.436Z,100225.31
2023-05-23T16:18:11.405Z,100220.16
2023-05-23T16:21:00.277Z,100228.19
2023-05-23T16:23:49.756Z,100227.19
2023-05-23T16:26:39.618Z,100227.78
2023-05-23T16:29:28.410Z,100230.66
2023-05-23T16:32:18.713Z,100229.00
2023-05-23T16:35:08.229Z,100224.88
2023-05-23T16:38:02.793Z,100227.78
2023-05-23T16:40:54.101Z,100225.28
2023-05-23T16:43:42.734Z,100224.09
2023-05-23T16:46:33.097Z,100229.44
2023-05-23T16:49:23.300Z,100236.84
2023-05-23T16:52:12.249Z,100244.03
2023-05-23T16:55:01.061Z,100239.72
2023-05-23T16:57:49.685Z,100236.84
2023-05-23T17:00:38.564Z,100241.34
2023-05-23T17:03:29.175Z,100240.53
2023-05-23T17:06:19.408Z,100234.38
2023-05-23T17:09:08.430Z,100251.22
2023-05-23T17:11:57.094Z,100257.78
2023-05-23T17:14:46.420Z,100260.03
2023-05-23T17:17:37.670Z,100262.69
2023-05-23T17:20:27.006Z,100261.00
2023-05-23T17:23:19.217Z,100271.31
2023-05-23T17:26:07.924Z,100265.13
2023-05-23T17:28:56.882Z,100274.19
2023-05-23T17:31:45.822Z,100277.50
2023-05-23T17:34:34.606Z,100282.69
2023-05-23T17:37:23.250Z,100290.28
2023-05-23T17:40:14.431Z,100304.50
2023-05-23T17:43:03.347Z,100307.00
2023-05-23T17:45:52.046Z,100309.25
2023-05-23T17:48:47.574Z,100305.16
2023-05-23T17:51:37.043Z,100320.38
2023-05-23T17:54:25.914Z,100316.66
2023-05-23T17:57:16.541Z,100325.75
2023-05-23T18:00:06.095Z,100328.63
2023-05-23T18:02:54.883Z,100328.22
2023-05-23T18:05:43.799Z,100329.44
2023-05-23T18:08:32.529Z,100329.88
2023-05-23T18:11:21.882Z,100333.56
2023-05-23T18:14:12.199Z,100332.94
2023-05-23T18:17:01.141Z,100342.00
2023-05-23T18:19:50.268Z,100340.16
2023-05-23T18:22:38.960Z,100346.31
2023-05-23T18:25:28.349Z,100349.00
2023-05-23T18:28:17.109Z,100351.31
2023-05-23T18:31:07.236Z,100350.47
2023-05-23T18:33:58.909Z,100364.88
2023-05-23T18:36:47.685Z,100366.53
2023-05-23T18:39:36.430Z,100370.84
2023-05-23T18:42:25.120Z,100377.22
2023-05-23T18:45:13.873Z,100377.66
2023-05-23T18:48:04.046Z,100387.94
2023-05-23T18:50:52.964Z,100391.84
2023-05-23T18:53:43.130Z,100388.34
2023-05-23T18:56:31.849Z,100394.53
2023-05-23T18:59:21.027Z,100397.63
2023-05-23T19:02:10.109Z,100401.94
2023-05-23T19:05:00.278Z,100415.13
2023-05-23T19:07:49.053Z,100420.06
2023-05-23T19:10:37.740Z,100429.88
2023-05-23T19:13:26.794Z,100433.22
2023-05-23T19:16:15.507Z,100441.63
2023-05-23T19:19:04.249Z,100431.94
2023-05-23T19:21:54.364Z,100436.88
2023-05-23T19:24:43.088Z,100438.56
2023-05-23T19:27:31.893Z,100451.94
2023-05-23T19:30:20.756Z,100462.00
2023-05-23T19:33:12.470Z,100459.53
2023-05-23T19:36:01.181Z,100468.16
2023-05-23T19:38:51.877Z,100472.91
2023-05-23T19:41:41.748Z,100474.75
2023-05-23T19:44:30.472Z,100478.47
2023-05-23T19:47:19.198Z,100484.84
2023-05-23T19:50:08.509Z,100491.63
2023-05-23T19:52:57.171Z,100484.22
2023-05-23T19:55:47.205Z,100492.25
2023-05-23T19:58:36.309Z,100503.38
2023-05-23T20:01:25.149Z,100497.38
2023-05-23T20:04:13.916Z,100509.31
2023-05-23T20:07:02.676Z,100511.75
2023-05-23T20:09:51.426Z,100512.59
2023-05-23T20:12:41.758Z,100516.06
2023-05-23T20:15:44.977Z,100520.78
2023-05-23T20:18:33.884Z,100522.44
2023-05-23T20:21:22.741Z,100529.66
2023-05-23T20:24:11.787Z,100541.41
2023-05-23T20:27:00.819Z,100530.69
2023-05-23T20:29:51.920Z,100545.88
2023-05-23T20:32:42.424Z,100543.22
2023-05-23T20:35:31.170Z,100543.47
2023-05-23T20:38:20.268Z,100545.25
2023-05-23T20:41:09.053Z,100540.94
2023-05-23T20:43:58.090Z,100540.50
2023-05-23T20:46:48.552Z,100551.66
2023-05-23T20:49:37.413Z,100550.38
2023-05-23T20:52:26.148Z,100554.06
2023-05-23T20:55:15.316Z,100555.66
2023-05-23T20:58:03.960Z,100560.66
2023-05-23T21:00:52.840Z,100553.88
2023-05-23T21:03:42.951Z,100563.50
2023-05-23T21:06:32.569Z,100567.03
2023-05-23T21:09:26.882Z,100565.16
2023-05-23T21:12:15.937Z,100565.16
2023-05-23T21:15:04.812Z,100570.06
2023-05-23T21:17:53.687Z,100572.13
2023-05-23T21:20:43.976Z,100569.69
2023-05-23T21:23:32.814Z,100569.69
2023-05-23T21:26:22.036Z,100563.66
2023-05-23T21:29:10.675Z,100567.19
2023-05-23T21:31:59.336Z,100566.38
2023-05-23T21:34:48.095Z,100571.72
2023-05-23T21:37:38.137Z,100574.63
2023-05-23T21:40:27.682Z,100578.31
2023-05-23T21:43:16.395Z,100578.72
2023-05-23T21:46:05.184Z,100575.06
2023-05-23T21:48:53.849Z,100581.19
2023-05-23T21:51:43.433Z,100576.88
2023-05-23T21:54:33.601Z,100581.56
2023-05-23T21:57:22.231Z,100583.63
2023-05-23T22:00:13.109Z,100586.06
2023-05-23T22:03:01.992Z,100586.47
2023-05-23T22:05:50.704Z,100585.44
2023-05-23T22:08:39.394Z,100582.81
2023-05-23T22:11:34.150Z,100587.38
2023-05-23T22:14:23.004Z,100589.03
2023-05-23T22:17:14.115Z,100590.97
2023-05-23T22:20:05.130Z,100585.25
2023-05-23T22:22:53.862Z,100593.91
2023-05-23T22:25:42.582Z,100599.44
2023-05-23T22:28:32.610Z,100604.59
2023-05-23T22:31:21.488Z,100597.56
2023-05-23T22:34:10.222Z,100599.44
2023-05-23T22:37:00.421Z,100604.34
2023-05-23T22:39:49.312Z,100605.19
2023-05-23T22:42:39.920Z,100609.53
2023-05-23T22:45:30.083Z,100608.31
2023-05-23T22:48:19.446Z,100606.25
2023-05-23T22:51:12.370Z,100602.16
2023-05-23T22:54:01.211Z,100605.84
2023-05-23T22:56:49.932Z,100599.88
2023-05-23T22:59:38.591Z,100595.56
2023-05-23T23:02:28.754Z,100592.06
2023-05-23T23:05:17.461Z,100593.94
2023-05-23T23:08:06.137Z,100599.28
2023-05-23T23:10:54.792Z,100591.75
2023-05-23T23:13:43.381Z,100598.75
2023-05-23T23:16:32.084Z,100594.22
2023-05-23T23:19:22.159Z,100591.75
2023-05-23T23:22:10.826Z,100590.06
2023-05-23T23:25:00.227Z,100583.75
2023-05-23T23:27:48.905Z,100595.44
2023-05-23T23:30:37.624Z,100597.50
2023-05-23T23:33:26.276Z,100584.41
2023-05-23T23:36:16.341Z,100579.81
2023-05-23T23:39:05.173Z,100578.19
2023-05-23T23:41:53.781Z,100577.91
2023-05-23T23:44:42.459Z,100583.88
2023-05-23T23:47:32.290Z,100580.59
2023-05-23T23:50:21.414Z,100578.75
2023-05-23T23:53:12.550Z,100581.00
2023-05-23T23:56:01.272Z,100581.41
2023-05-23T23:58:50.012Z,100590.81
